Time;durP1;ratioP1;P1;durP2;ratioP2;P2;SDS_P1;SDS_P2;PMS_P1;PMS_P2;Temp;Humidity;BMP_temperature;BMP_pressure;BME280_temperature;BME280_humidity;BME280_pressure;Samples;Min_cycle;Max_cycle;Signal;HPM_P1;HPM_P2
2023/08/09 00:00:28;;;;;;;2.00;1.20;;;20.30;79.40;;;;;;5023517;28;20493;-59
2023/08/09 00:02:54;;;;;;;2.45;1.20;;;20.30;79.20;;;;;;5025183;28;20033;-59
2023/08/09 00:05:19;;;;;;;3.60;1.40;;;20.30;79.30;;;;;;5024138;28;20041;-58
2023/08/09 00:07:45;;;;;;;2.30;1.70;;;20.30;79.70;;;;;;5024440;28;20455;-59
2023/08/09 00:10:10;;;;;;;3.75;1.55;;;20.30;80.00;;;;;;5024865;28;20034;-59
2023/08/09 00:12:36;;;;;;;1.88;1.40;;;20.20;80.20;;;;;;5023585;28;20419;-59
2023/08/09 00:15:02;;;;;;;2.35;1.30;;;20.20;79.80;;;;;;5024860;28;20125;-59
2023/08/09 00:17:28;;;;;;;2.80;1.52;;;20.20;79.90;;;;;;5006969;28;20113;-59
2023/08/09 00:19:54;;;;;;;1.45;1.30;;;20.20;79.90;;;;;;5026730;28;20059;-59
2023/08/09 00:22:20;;;;;;;4.07;1.50;;;20.20;80.00;;;;;;5028754;28;20037;-59
2023/08/09 00:24:45;;;;;;;2.47;1.40;;;20.20;80.10;;;;;;5027446;28;20049;-59
2023/08/09 00:27:11;;;;;;;6.78;1.35;;;20.20;80.50;;;;;;5027355;28;20037;-59
2023/08/09 00:29:36;;;;;;;3.45;1.55;;;20.20;80.70;;;;;;5027461;28;20172;-59
2023/08/09 00:32:02;;;;;;;3.58;1.30;;;20.20;80.80;;;;;;5027277;28;20457;-59
2023/08/09 00:34:27;;;;;;;1.75;1.30;;;20.10;80.90;;;;;;5028630;28;20137;-59
2023/08/09 00:36:53;;;;;;;2.03;1.20;;;20.10;80.70;;;;;;5027138;28;20030;-59
2023/08/09 00:39:19;;;;;;;4.30;1.50;;;20.10;80.50;;;;;;5027390;28;20084;-59
2023/08/09 00:41:45;;;;;;;4.05;1.40;;;20.10;80.60;;;;;;5027492;28;20045;-59
2023/08/09 00:44:11;;;;;;;1.83;1.33;;;20.10;81.10;;;;;;5026914;28;20049;-59
2023/08/09 00:46:37;;;;;;;2.60;1.30;;;20.10;81.20;;;;;;5027049;28;20049;-59
2023/08/09 00:49:03;;;;;;;1.83;1.35;;;20.10;81.30;;;;;;5028178;28;20038;-59
2023/08/09 00:51:29;;;;;;;4.65;1.70;;;20.10;81.50;;;;;;5026852;28;20044;-59
2023/08/09 00:53:55;;;;;;;2.42;1.40;;;20.00;81.60;;;;;;5026969;28;20022;-59
2023/08/09 00:56:20;;;;;;;2.65;1.35;;;20.00;81.70;;;;;;5026829;28;20366;-59
2023/08/09 00:58:46;;;;;;;4.30;1.30;;;20.00;81.70;;;;;;5026685;28;20378;-59
2023/08/09 01:01:11;;;;;;;2.22;1.38;;;20.00;81.60;;;;;;5026736;28;20029;-59
2023/08/09 01:03:37;;;;;;;1.35;1.25;;;20.00;81.50;;;;;;5026995;28;20034;-59
2023/08/09 01:06:08;;;;;;;3.22;1.30;;;20.00;81.80;;;;;;5026504;28;20030;-58
2023/08/09 01:08:47;;;;;;;4.40;1.42;;;20.00;81.80;;;;;;5027103;28;20113;-59
2023/08/09 01:11:24;;;;;;;3.50;1.30;;;20.00;81.70;;;;;;5026522;28;20454;-59
2023/08/09 01:13:50;;;;;;;2.97;1.23;;;20.00;81.80;;;;;;5026618;28;20046;-59
2023/08/09 01:16:16;;;;;;;1.85;1.30;;;20.00;81.90;;;;;;5026341;28;20056;-59
2023/08/09 01:18:42;;;;;;;1.75;1.30;;;20.00;82.00;;;;;;5026277;28;20026;-59
2023/08/09 01:21:07;;;;;;;5.30;1.38;;;19.90;82.20;;;;;;5026449;28;20057;-59
2023/08/09 01:23:35;;;;;;;3.38;1.38;;;19.90;82.20;;;;;;5026603;28;20397;-59
2023/08/09 01:26:00;;;;;;;2.45;1.25;;;19.90;82.40;;;;;;5026271;28;20033;-59
2023/08/09 01:28:26;;;;;;;1.88;1.23;;;19.90;82.40;;;;;;5026447;28;20493;-59
2023/08/09 01:30:51;;;;;;;2.42;1.50;;;19.90;82.60;;;;;;5025709;28;20351;-59
2023/08/09 01:33:17;;;;;;;4.05;1.50;;;19.90;82.70;;;;;;5026582;28;20394;-58
2023/08/09 01:35:47;;;;;;;3.20;1.63;;;19.90;82.80;;;;;;5026006;28;20058;-59
2023/08/09 01:38:16;;;;;;;5.03;1.52;;;19.90;82.90;;;;;;5025950;28;20029;-59
2023/08/09 01:40:42;;;;;;;2.83;1.92;;;19.80;82.90;;;;;;5025460;28;20183;-59
2023/08/09 01:43:08;;;;;;;2.67;1.58;;;19.90;82.90;;;;;;5025997;28;20026;-59
2023/08/09 01:45:34;;;;;;;3.65;1.60;;;19.90;82.90;;;;;;5009135;28;20033;-59
2023/08/09 01:48:00;;;;;;;2.33;1.50;;;19.80;83.00;;;;;;5010535;28;20034;-59
2023/08/09 01:50:26;;;;;;;2.85;1.50;;;19.90;83.10;;;;;;5025945;28;20080;-59
2023/08/09 01:52:55;;;;;;;3.78;1.88;;;19.80;83.10;;;;;;5025842;28;20172;-59
2023/08/09 01:55:21;;;;;;;3.90;1.77;;;19.80;83.20;;;;;;5025800;28;20033;-59
2023/08/09 01:57:47;;;;;;;2.30;1.42;;;19.80;83.20;;;;;;5025637;28;20088;-59
2023/08/09 02:00:18;;;;;;;1.95;1.75;;;19.80;83.30;;;;;;5025551;28;20033;-58
2023/08/09 02:02:44;;;;;;;2.00;1.70;;;19.80;83.10;;;;;;5025769;28;20136;-59
2023/08/09 02:05:10;;;;;;;4.28;1.80;;;19.80;83.10;;;;;;5025147;28;20133;-59
2023/08/09 02:07:35;;;;;;;3.55;2.70;;;19.80;83.10;;;;;;5025485;28;20022;-59
2023/08/09 02:10:01;;;;;;;5.28;4.78;;;19.80;83.30;;;;;;5025040;28;20044;-59
2023/08/09 02:12:26;;;;;;;5.88;4.95;;;19.80;83.30;;;;;;5026956;28;20041;-59
2023/08/09 02:14:52;;;;;;;5.25;3.65;;;19.80;83.50;;;;;;5026669;28;20358;-59
2023/08/09 02:17:27;;;;;;;2.95;1.90;;;19.80;83.60;;;;;;5026350;28;20467;-59
2023/08/09 02:19:53;;;;;;;5.57;2.35;;;19.80;83.90;;;;;;5027606;28;20552;-58
2023/08/09 02:22:19;;;;;;;2.85;1.88;;;19.80;84.00;;;;;;5025932;28;20053;-59
2023/08/09 02:24:45;;;;;;;3.17;1.90;;;19.70;84.10;;;;;;5025831;28;20030;-59
2023/08/09 02:27:10;;;;;;;2.42;1.80;;;19.70;84.20;;;;;;5025258;28;20422;-58
2023/08/09 02:29:36;;;;;;;3.70;1.98;;;19.80;84.20;;;;;;5025041;28;20045;-59
2023/08/09 02:32:02;;;;;;;3.22;2.10;;;19.70;84.90;;;;;;5024709;28;20415;-59
2023/08/09 02:34:28;;;;;;;3.45;2.45;;;19.70;84.30;;;;;;5025182;28;20030;-59
2023/08/09 02:36:54;;;;;;;5.22;2.70;;;19.70;84.40;;;;;;5024984;28;20064;-59
2023/08/09 02:39:20;;;;;;;2.90;2.60;;;19.70;84.50;;;;;;5025109;28;20040;-58
2023/08/09 02:41:45;;;;;;;7.47;2.70;;;19.70;84.50;;;;;;5024112;28;20109;-58
2023/08/09 02:44:11;;;;;;;3.03;2.55;;;19.70;84.70;;;;;;5024845;28;20419;-59
2023/08/09 02:46:37;;;;;;;4.30;2.72;;;19.70;84.70;;;;;;5026335;28;20030;-59
2023/08/09 02:49:03;;;;;;;4.63;2.38;;;19.70;84.80;;;;;;5024623;28;20367;-59
2023/08/09 02:51:28;;;;;;;4.75;2.53;;;19.70;84.70;;;;;;5024791;28;20026;-59
2023/08/09 02:53:58;;;;;;;7.45;2.58;;;19.70;84.90;;;;;;5024782;28;20022;-59
2023/08/09 02:56:23;;;;;;;3.67;2.42;;;19.70;85.00;;;;;;5024610;28;20085;-59
2023/08/09 02:58:49;;;;;;;2.95;1.85;;;19.70;85.00;;;;;;5024598;28;20092;-59
2023/08/09 03:01:14;;;;;;;3.10;2.08;;;19.70;85.10;;;;;;5026054;28;20022;-59
2023/08/09 03:03:40;;;;;;;5.57;2.10;;;19.70;85.00;;;;;;5024742;28;20036;-59
2023/08/09 03:06:07;;;;;;;2.50;2.30;;;19.70;85.10;;;;;;5024302;28;20419;-59
2023/08/09 03:08:32;;;;;;;3.35;2.45;;;19.70;85.00;;;;;;5025761;28;20458;-59
2023/08/09 03:10:58;;;;;;;2.72;2.50;;;19.70;84.70;;;;;;5008038;28;20041;-59
2023/08/09 03:13:23;;;;;;;4.40;2.13;;;19.70;84.70;;;;;;5008078;28;20026;-58
2023/08/09 03:15:49;;;;;;;4.43;2.08;;;19.70;84.80;;;;;;5024805;28;20038;-58
2023/08/09 03:18:14;;;;;;;3.58;2.20;;;19.70;85.20;;;;;;5024465;28;20026;-59
2023/08/09 03:20:40;;;;;;;4.38;2.22;;;19.60;85.40;;;;;;5024225;28;20105;-59
2023/08/09 03:23:08;;;;;;;4.32;1.70;;;19.60;85.70;;;;;;5025651;28;20044;-59
2023/08/09 03:25:35;;;;;;;4.88;1.90;;;19.60;85.90;;;;;;5008127;28;20087;-59
2023/08/09 03:28:00;;;;;;;3.10;2.08;;;19.60;85.90;;;;;;5024308;28;20026;-59
2023/08/09 03:30:26;;;;;;;5.40;2.55;;;19.60;86.00;;;;;;5025373;28;20037;-59
2023/08/09 03:32:51;;;;;;;5.00;3.40;;;19.60;86.00;;;;;;5024073;28;20030;-59
2023/08/09 03:35:17;;;;;;;4.80;4.15;;;19.60;86.10;;;;;;5023862;28;20053;-59
2023/08/09 03:37:42;;;;;;;6.55;3.40;;;19.60;86.30;;;;;;5024059;28;20030;-59
2023/08/09 03:40:12;;;;;;;6.53;3.17;;;19.60;86.40;;;;;;5025112;28;20026;-59
2023/08/09 03:42:41;;;;;;;4.80;3.13;;;19.60;86.50;;;;;;5007936;28;20026;-59
2023/08/09 03:45:07;;;;;;;3.78;2.65;;;19.60;86.60;;;;;;5007984;28;20509;-58
2023/08/09 03:47:33;;;;;;;3.20;2.70;;;19.50;86.60;;;;;;5024973;28;20632;-59
2023/08/09 03:49:59;;;;;;;4.72;2.75;;;19.60;86.70;;;;;;5023646;28;20054;-59
2023/08/09 03:52:25;;;;;;;8.45;3.40;;;19.50;86.60;;;;;;5007287;28;20029;-59
2023/08/09 03:54:52;;;;;;;15.38;4.38;;;19.50;86.60;;;;;;5023531;28;20049;-59
2023/08/09 03:57:19;;;;;;;13.65;4.10;;;19.50;86.80;;;;;;5023696;28;20061;-59
2023/08/09 03:59:44;;;;;;;7.78;3.55;;;19.50;86.90;;;;;;5023771;28;20018;-59
2023/08/09 04:02:10;;;;;;;16.27;3.97;;;19.50;86.90;;;;;;5023632;28;20097;-59
2023/08/09 04:04:35;;;;;;;10.40;3.53;;;19.50;86.90;;;;;;5023703;28;20056;-59
2023/08/09 04:07:01;;;;;;;9.48;3.35;;;19.50;87.00;;;;;;5023465;28;20423;-59
2023/08/09 04:09:26;;;;;;;32.80;4.90;;;19.50;87.00;;;;;;5023662;28;20026;-59
2023/08/09 04:11:53;;;;;;;81.65;11.27;;;19.50;87.10;;;;;;5023426;28;20053;-59
2023/08/09 04:14:19;;;;;;;21.05;5.20;;;19.50;87.20;;;;;;5024858;28;20022;-59
2023/08/09 04:16:45;;;;;;;27.83;4.72;;;19.50;87.20;;;;;;5023477;28;20121;-59
2023/08/09 04:19:11;;;;;;;40.88;6.43;;;19.50;87.10;;;;;;5007113;28;20026;-59
2023/08/09 04:21:37;;;;;;;37.10;6.95;;;19.50;87.10;;;;;;5024575;28;20053;-59
2023/08/09 04:24:04;;;;;;;41.50;6.25;;;19.50;87.10;;;;;;5023394;28;20034;-59
2023/08/09 04:26:29;;;;;;;30.25;5.68;;;19.40;87.10;;;;;;5006309;28;20052;-59
2023/08/09 04:28:55;;;;;;;22.80;5.05;;;19.50;87.20;;;;;;5024185;28;20034;-59
2023/08/09 04:31:21;;;;;;;35.17;5.07;;;19.40;87.20;;;;;;5023423;28;20108;-59
2023/08/09 04:33:49;;;;;;;21.27;4.57;;;19.40;87.10;;;;;;5023452;28;20058;-59
2023/08/09 04:36:16;;;;;;;24.15;4.85;;;19.40;87.20;;;;;;5024693;28;20105;-59
2023/08/09 04:38:42;;;;;;;28.38;4.45;;;19.40;87.40;;;;;;5023405;28;20022;-59
2023/08/09 04:41:09;;;;;;;25.15;4.78;;;19.40;87.50;;;;;;5023362;28;20022;-59
2023/08/09 04:43:37;;;;;;;19.55;4.20;;;19.40;87.50;;;;;;5022949;28;20121;-59
2023/08/09 04:46:03;;;;;;;16.52;4.13;;;19.40;87.50;;;;;;5023747;28;20034;-59
2023/08/09 04:48:29;;;;;;;20.00;3.85;;;19.40;87.40;;;;;;5024455;28;20029;-59
2023/08/09 04:50:55;;;;;;;9.13;4.03;;;19.40;87.40;;;;;;5024606;28;20054;-58
2023/08/09 04:53:21;;;;;;;10.80;3.13;;;19.40;87.30;;;;;;5023394;28;20026;-58
2023/08/09 04:55:46;;;;;;;34.50;3.60;;;19.40;87.30;;;;;;5023413;28;20030;-58
2023/08/09 04:58:12;;;;;;;10.63;2.83;;;19.40;87.40;;;;;;5023911;28;20459;-58
2023/08/09 05:00:38;;;;;;;16.00;3.10;;;19.40;87.40;;;;;;5023393;28;20057;-58
2023/08/09 05:03:04;;;;;;;11.85;2.95;;;19.40;87.40;;;;;;5007015;28;20036;-58
2023/08/09 05:05:30;;;;;;;8.27;2.58;;;19.40;87.40;;;;;;5025497;28;20092;-58
2023/08/09 05:07:56;;;;;;;11.50;3.38;;;19.40;87.60;;;;;;5026666;28;20026;-58
2023/08/09 05:10:21;;;;;;;11.32;3.50;;;19.40;87.40;;;;;;5026483;28;20089;-58
2023/08/09 05:12:47;;;;;;;16.05;3.47;;;19.40;87.40;;;;;;5026702;28;20026;-58
2023/08/09 05:15:12;;;;;;;9.25;2.80;;;19.40;87.40;;;;;;5026293;28;20105;-58
2023/08/09 05:17:38;;;;;;;12.82;2.70;;;19.40;87.40;;;;;;5026494;28;20021;-58
2023/08/09 05:20:04;;;;;;;8.50;2.70;;;19.40;87.40;;;;;;5026419;28;20022;-58
2023/08/09 05:22:30;;;;;;;9.75;3.08;;;19.40;87.40;;;;;;5026326;28;20025;-58
2023/08/09 05:24:55;;;;;;;7.45;2.55;;;19.40;87.40;;;;;;5026381;28;20033;-58
2023/08/09 05:27:21;;;;;;;7.93;3.00;;;19.40;87.30;;;;;;5027734;28;20022;-58
2023/08/09 05:29:46;;;;;;;6.53;2.60;;;19.40;87.20;;;;;;5026160;28;20117;-58
2023/08/09 05:32:12;;;;;;;6.00;2.38;;;19.40;87.20;;;;;;5026521;28;20068;-58
2023/08/09 05:34:38;;;;;;;5.60;2.22;;;19.40;87.20;;;;;;5027578;28;20022;-58
2023/08/09 05:37:03;;;;;;;8.38;2.92;;;19.40;87.10;;;;;;5026169;28;20040;-58
2023/08/09 05:39:29;;;;;;;6.45;2.63;;;19.40;87.10;;;;;;5026104;28;20025;-58
2023/08/09 05:41:54;;;;;;;14.20;2.72;;;19.40;86.90;;;;;;5026036;28;20042;-58
2023/08/09 05:44:20;;;;;;;5.85;2.45;;;19.40;86.90;;;;;;5025920;28;20033;-58
2023/08/09 05:46:45;;;;;;;10.60;2.70;;;19.40;86.90;;;;;;5027373;28;20133;-58
2023/08/09 05:49:11;;;;;;;6.72;2.85;;;19.40;86.70;;;;;;5025853;28;20026;-58
2023/08/09 05:51:37;;;;;;;10.27;2.42;;;19.40;86.60;;;;;;5025899;28;20038;-58
2023/08/09 05:54:02;;;;;;;8.27;2.40;;;19.40;86.40;;;;;;5026984;28;20057;-58
2023/08/09 05:56:28;;;;;;;6.97;2.25;;;19.40;86.10;;;;;;5009405;28;20080;-58
2023/08/09 05:58:54;;;;;;;5.90;1.85;;;19.40;85.40;;;;;;5025627;28;20026;-58
2023/08/09 06:01:20;;;;;;;6.35;1.90;;;19.40;85.10;;;;;;5027084;28;20044;-58
2023/08/09 06:03:47;;;;;;;9.88;2.08;;;19.40;84.80;;;;;;5025723;28;20058;-58
2023/08/09 06:06:12;;;;;;;3.95;1.80;;;19.40;84.60;;;;;;5025974;28;20050;-58
2023/08/09 06:08:38;;;;;;;3.47;1.92;;;19.40;84.40;;;;;;5026853;28;20084;-58
2023/08/09 06:11:03;;;;;;;5.00;1.63;;;19.40;84.20;;;;;;5025285;28;20034;-58
2023/08/09 06:13:29;;;;;;;4.10;1.92;;;19.40;84.00;;;;;;5025876;28;20427;-58
2023/08/09 06:15:55;;;;;;;3.42;1.80;;;19.40;84.00;;;;;;5026924;28;20026;-58
2023/08/09 06:18:21;;;;;;;6.13;1.70;;;19.40;83.90;;;;;;5024257;28;20049;-58
2023/08/09 06:20:48;;;;;;;2.03;1.40;;;19.40;83.80;;;;;;5025259;28;20049;-58
2023/08/09 06:23:13;;;;;;;2.90;1.60;;;19.40;83.70;;;;;;5024735;28;20037;-58
2023/08/09 06:25:39;;;;;;;6.25;1.75;;;19.40;83.70;;;;;;5027428;28;20042;-58
2023/08/09 06:28:05;;;;;;;8.50;2.10;;;19.50;83.60;;;;;;5025345;28;20033;-58
2023/08/09 06:30:31;;;;;;;6.43;2.30;;;19.50;83.40;;;;;;5026175;28;20037;-58
2023/08/09 06:32:56;;;;;;;10.10;2.20;;;19.50;83.10;;;;;;5024595;28;20097;-58
2023/08/09 06:35:22;;;;;;;5.15;1.67;;;19.50;82.90;;;;;;5024959;28;20030;-58
2023/08/09 06:37:48;;;;;;;10.63;1.98;;;19.50;82.80;;;;;;5026247;28;20050;-58
2023/08/09 06:40:15;;;;;;;7.32;2.33;;;19.50;82.80;;;;;;5024868;28;20038;-58
2023/08/09 06:42:41;;;;;;;6.63;2.20;;;19.50;83.50;;;;;;5008519;28;20037;-58
2023/08/09 06:45:07;;;;;;;8.75;2.25;;;19.50;82.90;;;;;;5024635;28;20033;-58
2023/08/09 06:47:33;;;;;;;20.85;3.53;;;19.50;82.90;;;;;;5024575;28;20101;-58
2023/08/09 06:50:00;;;;;;;30.00;4.53;;;19.50;82.70;;;;;;5024439;28;20450;-59
2023/08/09 06:52:26;;;;;;;29.40;4.00;;;19.50;83.30;;;;;;5024864;28;20026;-58
2023/08/09 06:54:52;;;;;;;18.13;3.55;;;19.50;82.70;;;;;;5007977;28;20026;-58
2023/08/09 06:57:18;;;;;;;23.70;3.08;;;19.60;82.90;;;;;;5024543;28;20033;-59
2023/08/09 06:59:43;;;;;;;21.13;3.30;;;19.60;82.90;;;;;;5008225;28;20033;-58
2023/08/09 07:02:10;;;;;;;15.68;3.28;;;19.60;82.90;;;;;;5024346;28;20442;-58
2023/08/09 07:04:36;;;;;;;11.73;3.03;;;19.60;82.80;;;;;;5024697;28;20079;-58
2023/08/09 07:07:02;;;;;;;18.58;3.60;;;19.60;83.50;;;;;;5023120;28;20037;-59
2023/08/09 07:09:28;;;;;;;17.13;3.10;;;19.60;82.90;;;;;;5024117;28;20034;-58
2023/08/09 07:11:53;;;;;;;16.52;3.22;;;19.60;83.10;;;;;;5023052;28;20026;-58
2023/08/09 07:14:19;;;;;;;18.75;3.10;;;19.60;83.90;;;;;;5006887;28;20045;-59
2023/08/09 07:16:44;;;;;;;15.77;3.10;;;19.60;83.20;;;;;;5003909;28;20065;-59
2023/08/09 07:19:10;;;;;;;15.85;3.20;;;19.60;83.20;;;;;;5018658;28;20040;-58
2023/08/09 07:21:35;;;;;;;16.40;3.67;;;19.60;83.20;;;;;;5024469;28;20098;-59
2023/08/09 07:24:01;;;;;;;21.10;4.18;;;19.60;83.30;;;;;;5024289;28;20025;-60
2023/08/09 07:26:27;;;;;;;18.63;3.95;;;19.60;83.40;;;;;;5024286;28;20383;-61
2023/08/09 07:28:52;;;;;;;16.88;4.55;;;19.60;83.30;;;;;;5023841;28;20042;-61
2023/08/09 07:31:20;;;;;;;17.30;3.90;;;19.60;83.30;;;;;;5023999;28;20100;-61
2023/08/09 07:33:46;;;;;;;27.77;4.18;;;19.60;83.20;;;;;;5007703;28;20026;-61
2023/08/09 07:36:11;;;;;;;13.25;2.97;;;19.60;83.20;;;;;;5020554;28;20030;-61
2023/08/09 07:38:37;;;;;;;10.43;2.70;;;19.70;83.20;;;;;;5020711;28;20490;-61
2023/08/09 07:41:04;;;;;;;14.77;3.28;;;19.70;83.20;;;;;;5005615;28;20046;-60
2023/08/09 07:43:32;;;;;;;12.93;2.78;;;19.70;83.10;;;;;;5023579;28;20029;-60
2023/08/09 07:45:57;;;;;;;16.05;3.35;;;19.70;83.10;;;;;;5023777;28;20041;-61
2023/08/09 07:48:23;;;;;;;8.70;2.60;;;19.70;83.00;;;;;;5023236;28;20505;-60
2023/08/09 07:50:49;;;;;;;12.15;3.20;;;19.70;82.90;;;;;;5023472;28;20042;-59
2023/08/09 07:53:14;;;;;;;9.15;2.72;;;19.80;83.00;;;;;;5025232;28;20041;-59
2023/08/09 07:55:40;;;;;;;8.93;2.88;;;19.80;83.00;;;;;;5007279;28;20037;-58
2023/08/09 07:58:06;;;;;;;16.20;3.22;;;19.80;83.00;;;;;;5023868;28;20047;-58
2023/08/09 08:00:34;;;;;;;12.50;3.20;;;19.80;83.00;;;;;;5022902;28;20443;-58
2023/08/09 08:03:00;;;;;;;13.20;3.75;;;19.90;83.10;;;;;;5023715;28;20018;-58
2023/08/09 08:05:26;;;;;;;18.33;4.13;;;19.90;83.10;;;;;;5023338;28;20048;-58
2023/08/09 08:07:54;;;;;;;18.83;3.50;;;19.90;82.90;;;;;;5023201;28;20022;-58
2023/08/09 08:10:20;;;;;;;16.02;4.05;;;19.90;82.80;;;;;;5021820;28;20446;-58
2023/08/09 08:12:48;;;;;;;14.75;4.30;;;19.90;82.90;;;;;;5028329;28;20022;-59
2023/08/09 08:15:13;;;;;;;14.80;3.55;;;19.90;83.00;;;;;;5019095;28;20022;-58
2023/08/09 08:17:40;;;;;;;9.35;3.15;;;20.00;82.90;;;;;;5025851;28;20105;-57
2023/08/09 08:20:10;;;;;;;18.27;3.97;;;20.00;82.90;;;;;;5021826;28;20026;-58
2023/08/09 08:22:35;;;;;;;19.50;4.45;;;20.00;82.80;;;;;;5021179;28;20052;-58
2023/08/09 08:25:01;;;;;;;23.15;5.03;;;20.10;82.60;;;;;;5038269;28;20117;-58
2023/08/09 08:27:26;;;;;;;28.60;5.43;;;20.00;82.50;;;;;;5035034;28;20096;-58
2023/08/09 08:29:55;;;;;;;22.85;5.03;;;20.10;82.80;;;;;;5020819;28;20080;-58
2023/08/09 08:32:20;;;;;;;32.25;5.50;;;20.10;82.80;;;;;;5021050;28;20026;-59
2023/08/09 08:34:46;;;;;;;32.15;6.25;;;20.10;82.80;;;;;;5030961;28;20053;-58
2023/08/09 08:37:12;;;;;;;22.38;5.82;;;20.20;82.90;;;;;;5011342;28;20041;-58
2023/08/09 08:39:38;;;;;;;38.03;6.57;;;20.20;83.00;;;;;;5021430;28;20076;-59
2023/08/09 08:42:04;;;;;;;31.15;5.80;;;20.20;83.10;;;;;;5025668;28;20442;-58
2023/08/09 08:44:30;;;;;;;37.53;6.35;;;20.20;83.10;;;;;;5027361;28;20030;-58
2023/08/09 08:46:55;;;;;;;52.13;6.60;;;20.30;83.00;;;;;;5008330;28;20041;-58
2023/08/09 08:49:24;;;;;;;44.08;7.03;;;20.30;83.20;;;;;;5024766;28;20497;-58
2023/08/09 08:51:54;;;;;;;42.20;6.90;;;20.30;82.90;;;;;;5028671;28;20033;-58
2023/08/09 08:54:20;;;;;;;71.65;7.63;;;20.30;83.00;;;;;;5045225;28;20026;-59
2023/08/09 08:56:47;;;;;;;127.55;15.63;;;20.40;82.80;;;;;;5016792;28;20022;-57
2023/08/09 08:59:12;;;;;;;37.38;6.03;;;20.40;82.80;;;;;;5021098;28;20041;-58
2023/08/09 09:01:38;;;;;;;49.10;6.70;;;20.50;82.60;;;;;;5022342;28;20034;-58
2023/08/09 09:04:04;;;;;;;36.22;5.72;;;20.50;82.50;;;;;;5023423;28;20030;-59
2023/08/09 09:06:30;;;;;;;34.65;5.43;;;20.50;82.50;;;;;;5021706;28;20049;-59
2023/08/09 09:08:55;;;;;;;48.58;6.57;;;20.50;82.40;;;;;;5018960;28;20509;-58
2023/08/09 09:11:22;;;;;;;33.50;5.95;;;20.60;82.20;;;;;;5024397;28;20030;-58
2023/08/09 09:13:50;;;;;;;50.38;7.45;;;20.60;82.10;;;;;;5024488;28;20065;-58
2023/08/09 09:16:18;;;;;;;41.58;7.13;;;20.60;81.70;;;;;;5022969;28;20029;-59
2023/08/09 09:18:45;;;;;;;39.03;7.13;;;20.60;81.70;;;;;;4987445;28;20490;-58
2023/08/09 09:21:11;;;;;;;30.48;5.85;;;20.60;81.60;;;;;;5011383;28;20061;-58
2023/08/09 09:23:37;;;;;;;38.10;6.13;;;20.60;81.60;;;;;;5022115;28;20105;-58
2023/08/09 09:26:16;;;;;;;42.15;6.60;;;20.60;81.60;;;;;;5021995;28;20118;-59
2023/08/09 09:28:44;;;;;;;37.72;6.25;;;20.70;81.60;;;;;;5012925;28;20470;-58
2023/08/09 09:31:10;;;;;;;34.58;6.15;;;20.70;81.50;;;;;;5024647;28;20049;-58
2023/08/09 09:33:37;;;;;;;76.50;11.23;;;20.70;82.00;;;;;;5022699;28;20136;-58
2023/08/09 09:36:02;;;;;;;79.18;10.63;;;20.80;81.70;;;;;;5021701;28;20085;-58
2023/08/09 09:38:28;;;;;;;52.20;8.50;;;20.70;80.90;;;;;;5031906;28;20026;-58
2023/08/09 09:40:56;;;;;;;46.45;8.13;;;20.80;80.80;;;;;;5014658;28;20034;-58
2023/08/09 09:43:22;;;;;;;55.20;7.93;;;20.80;80.80;;;;;;5002440;28;20029;-59
2023/08/09 09:45:48;;;;;;;41.55;7.18;;;20.80;80.80;;;;;;5018078;28;20045;-58
2023/08/09 09:48:19;;;;;;;39.95;7.28;;;20.90;80.90;;;;;;5013967;28;20473;-58
2023/08/09 09:50:45;;;;;;;41.72;7.15;;;20.90;80.80;;;;;;4996714;28;20133;-58
2023/08/09 09:53:14;;;;;;;42.45;6.68;;;20.90;80.80;;;;;;5020600;28;20030;-58
2023/08/09 09:55:40;;;;;;;32.22;5.75;;;20.90;80.80;;;;;;5014103;28;20030;-58
2023/08/09 09:58:06;;;;;;;34.65;5.75;;;20.90;80.70;;;;;;5037820;28;20023;-58
2023/08/09 10:00:32;;;;;;;24.70;5.68;;;21.00;80.50;;;;;;5038884;28;20099;-58
2023/08/09 10:02:59;;;;;;;33.75;5.93;;;21.00;80.30;;;;;;5021950;28;20034;-59
2023/08/09 10:05:36;;;;;;;36.08;5.47;;;21.00;80.30;;;;;;5022567;28;20038;-58
2023/08/09 10:08:10;;;;;;;29.35;5.05;;;21.00;80.10;;;;;;5024992;28;20030;-58
2023/08/09 10:10:36;;;;;;;30.45;4.63;;;21.10;80.00;;;;;;5024028;28;20513;-58
2023/08/09 10:13:04;;;;;;;30.55;4.78;;;21.10;79.80;;;;;;5020982;28;20021;-58
2023/08/09 10:15:41;;;;;;;34.22;4.93;;;21.20;79.80;;;;;;5004925;28;20026;-58
2023/08/09 10:18:20;;;;;;;32.70;5.50;;;21.20;79.50;;;;;;5020654;28;20132;-58
2023/08/09 10:20:51;;;;;;;31.55;5.18;;;21.30;79.40;;;;;;5038543;28;20096;-58
2023/08/09 10:23:31;;;;;;;23.27;4.55;;;21.30;79.00;;;;;;5022529;28;20037;-58
2023/08/09 10:25:57;;;;;;;31.75;4.30;;;21.40;78.90;;;;;;5023687;28;20108;-58
2023/08/09 10:28:45;;;;;;;17.35;3.72;;;21.40;78.80;;;;;;5023977;28;20049;-58
2023/08/09 10:31:14;;;;;;;25.75;3.95;;;21.50;78.40;;;;;;5021952;28;20172;-58
2023/08/09 10:34:18;;;;;;;23.13;4.28;;;21.50;78.30;;;;;;5023748;28;20080;-58
2023/08/09 10:36:48;;;;;;;31.80;4.53;;;21.60;78.20;;;;;;5025160;28;20073;-58
2023/08/09 10:39:16;;;;;;;19.40;3.70;;;21.70;77.90;;;;;;5020414;28;20027;-58
2023/08/09 10:41:57;;;;;;;24.20;3.75;;;21.70;77.30;;;;;;5037339;28;20061;-58
2023/08/09 10:44:48;;;;;;;21.45;3.45;;;21.80;76.90;;;;;;5019122;28;20025;-58
2023/08/09 10:47:21;;;;;;;17.73;3.72;;;21.80;76.80;;;;;;5018944;28;20181;-58
2023/08/09 10:49:53;;;;;;;20.67;3.50;;;21.90;76.70;;;;;;5012905;28;20030;-58
2023/08/09 10:52:20;;;;;;;26.70;3.70;;;22.00;76.40;;;;;;5038905;28;20553;-58
2023/08/09 10:54:46;;;;;;;17.17;3.63;;;22.00;75.90;;;;;;5024268;28;20242;-58
2023/08/09 10:57:12;;;;;;;30.70;3.90;;;22.10;75.60;;;;;;5007111;28;20034;-55
2023/08/09 10:59:39;;;;;;;14.02;3.47;;;22.10;75.40;;;;;;5020149;28;20328;-56
2023/08/09 11:02:05;;;;;;;15.95;3.53;;;22.20;75.50;;;;;;5007698;28;20053;-56
2023/08/09 11:04:31;;;;;;;17.92;2.83;;;22.30;74.90;;;;;;5039608;28;20116;-55
2023/08/09 11:06:56;;;;;;;58.28;7.90;;;22.30;74.60;;;;;;5023251;28;20084;-56
2023/08/09 11:09:22;;;;;;;20.75;3.33;;;22.40;74.10;;;;;;5015412;28;20029;-56
2023/08/09 11:11:49;;;;;;;17.25;3.50;;;22.40;74.00;;;;;;5029282;28;20054;-56
2023/08/09 11:14:16;;;;;;;23.70;4.20;;;22.50;73.80;;;;;;5023306;28;20030;-55
2023/08/09 11:16:42;;;;;;;23.27;3.75;;;22.60;73.70;;;;;;5007422;28;20386;-55
2023/08/09 11:19:12;;;;;;;32.45;3.50;;;22.70;73.60;;;;;;5024191;28;20029;-56
2023/08/09 11:21:42;;;;;;;43.90;6.15;;;22.70;73.70;;;;;;5040761;28;20026;-55
2023/08/09 11:24:08;;;;;;;25.60;4.38;;;22.80;73.50;;;;;;5023120;28;20076;-55
2023/08/09 11:26:36;;;;;;;21.63;3.35;;;22.80;72.70;;;;;;5027857;28;20021;-55
2023/08/09 11:29:05;;;;;;;25.20;3.58;;;22.90;73.20;;;;;;5025145;28;20037;-56
2023/08/09 11:31:39;;;;;;;17.73;2.97;;;22.90;72.50;;;;;;5004154;28;20026;-56
2023/08/09 11:34:05;;;;;;;14.52;3.10;;;23.00;73.10;;;;;;5021235;28;20030;-56
2023/08/09 11:36:30;;;;;;;27.20;3.42;;;23.00;72.70;;;;;;5024867;28;20050;-56
2023/08/09 11:38:57;;;;;;;27.90;3.97;;;23.10;72.90;;;;;;5017842;28;20466;-56
2023/08/09 11:41:24;;;;;;;17.48;3.72;;;23.10;71.90;;;;;;5036099;28;20030;-55
2023/08/09 11:43:50;;;;;;;16.52;3.60;;;23.20;71.90;;;;;;5034693;28;20032;-55
2023/08/09 11:46:20;;;;;;;27.50;4.35;;;23.20;71.90;;;;;;5022544;28;20077;-55
2023/08/09 11:48:46;;;;;;;22.83;4.82;;;23.20;71.80;;;;;;5010875;28;20026;-55
2023/08/09 11:51:13;;;;;;;28.08;4.32;;;23.20;72.10;;;;;;5017781;28;20044;-56
2023/08/09 11:53:39;;;;;;;27.45;3.95;;;23.30;72.10;;;;;;5006296;28;20049;-56
2023/08/09 11:56:06;;;;;;;37.72;4.45;;;23.30;72.30;;;;;;5023644;28;20038;-56
2023/08/09 11:58:34;;;;;;;28.98;4.38;;;23.30;72.10;;;;;;5036615;28;20026;-55
2023/08/09 12:01:00;;;;;;;35.35;3.90;;;23.40;71.80;;;;;;5021852;28;20084;-53
2023/08/09 12:03:25;;;;;;;33.00;4.50;;;23.40;72.00;;;;;;5023457;28;20152;-55
2023/08/09 12:05:52;;;;;;;27.88;4.82;;;23.50;72.20;;;;;;5023162;28;20037;-56
2023/08/09 12:08:36;;;;;;;26.40;4.60;;;23.50;71.40;;;;;;5016620;28;20057;-56
2023/08/09 12:11:02;;;;;;;21.55;4.10;;;23.50;71.40;;;;;;5020751;28;20061;-56
2023/08/09 12:13:27;;;;;;;36.42;4.78;;;23.50;71.10;;;;;;5021777;28;20025;-56
2023/08/09 12:15:53;;;;;;;19.92;3.80;;;23.60;71.00;;;;;;5025589;28;20034;-55
2023/08/09 12:18:19;;;;;;;25.50;4.05;;;23.60;70.80;;;;;;5027517;28;20038;-55
2023/08/09 12:20:46;;;;;;;42.22;4.78;;;23.60;71.10;;;;;;5026845;28;20037;-55
2023/08/09 12:23:11;;;;;;;25.55;4.53;;;23.70;71.40;;;;;;5026510;28;20029;-55
2023/08/09 12:25:37;;;;;;;26.58;4.13;;;23.70;71.30;;;;;;5023507;28;20100;-55
2023/08/09 12:28:03;;;;;;;28.48;4.15;;;23.80;71.10;;;;;;5040289;28;20037;-56
2023/08/09 12:30:29;;;;;;;26.98;4.60;;;23.80;71.00;;;;;;5008725;28;20034;-55
2023/08/09 12:32:55;;;;;;;36.75;4.20;;;23.80;71.20;;;;;;5042061;28;20032;-55
2023/08/09 12:35:20;;;;;;;27.63;4.60;;;23.90;71.00;;;;;;5027868;28;20390;-55
2023/08/09 12:37:46;;;;;;;21.45;3.83;;;23.90;71.10;;;;;;5026798;28;20034;-56